sensor_id;sensor_type;location;lat;lon;timestamp;noise_LAeq;noise_LA_min;noise_LA_max;noise_LA01;noise_LA95
74496;Laerm;62979;55.720;37.606;2023-03-31T00:01:37;41.17;37.19;47.03;;
74496;Laerm;62979;55.720;37.606;2023-03-31T00:04:08;40.48;35.76;49.42;;
74496;Laerm;62979;55.720;37.606;2023-03-31T00:06:40;39.31;35.15;43.25;;
74496;Laerm;62979;55.720;37.606;2023-03-31T00:09:11;40.08;35.71;45.58;;
74496;Laerm;62979;55.720;37.606;2023-03-31T00:11:39;45.27;35.88;55.18;;
74496;Laerm;62979;55.720;37.606;2023-03-31T00:14:08;42.13;36.95;52.84;;
74496;Laerm;62979;55.720;37.606;2023-03-31T00:16:36;41.79;36.62;49.67;;
74496;Laerm;62979;55.720;37.606;2023-03-31T00:19:05;47.22;35.55;61.94;;
74496;Laerm;62979;55.720;37.606;2023-03-31T00:21:35;44.73;37.35;57.31;;
74496;Laerm;62979;55.720;37.606;2023-03-31T00:24:04;50.73;38.84;62.42;;
74496;Laerm;62979;55.720;37.606;2023-03-31T00:26:33;40.50;36.04;48.22;;
74496;Laerm;62979;55.720;37.606;2023-03-31T00:29:01;45.54;35.29;61.44;;
74496;Laerm;62979;55.720;37.606;2023-03-31T00:31:31;39.88;35.66;45.96;;
74496;Laerm;62979;55.720;37.606;2023-03-31T00:33:58;42.34;37.16;53.11;;
74496;Laerm;62979;55.720;37.606;2023-03-31T00:36:26;43.26;36.20;62.22;;
74496;Laerm;62979;55.720;37.606;2023-03-31T00:38:58;45.33;36.88;60.42;;
74496;Laerm;62979;55.720;37.606;2023-03-31T00:41:28;42.68;36.85;56.39;;
74496;Laerm;62979;55.720;37.606;2023-03-31T00:44:08;41.75;37.16;54.05;;
74496;Laerm;62979;55.720;37.606;2023-03-31T00:46:45;41.89;36.72;53.89;;
74496;Laerm;62979;55.720;37.606;2023-03-31T00:49:22;42.11;37.06;56.35;;
74496;Laerm;62979;55.720;37.606;2023-03-31T00:51:59;58.26;39.41;67.57;;
74496;Laerm;62979;55.720;37.606;2023-03-31T00:54:29;55.60;41.02;64.04;;
74496;Laerm;62979;55.720;37.606;2023-03-31T00:56:58;45.40;36.90;53.50;;
74496;Laerm;62979;55.720;37.606;2023-03-31T00:59:30;40.23;34.81;46.33;;
74496;Laerm;62979;55.720;37.606;2023-03-31T01:02:02;45.12;37.23;58.00;;
74496;Laerm;62979;55.720;37.606;2023-03-31T01:04:34;57.21;38.83;68.16;;
74496;Laerm;62979;55.720;37.606;2023-03-31T01:07:10;53.32;39.39;63.62;;
74496;Laerm;62979;55.720;37.606;2023-03-31T01:09:44;50.66;35.99;64.13;;
74496;Laerm;62979;55.720;37.606;2023-03-31T01:12:16;41.31;36.60;54.83;;
74496;Laerm;62979;55.720;37.606;2023-03-31T01:14:43;40.53;36.81;48.32;;
74496;Laerm;62979;55.720;37.606;2023-03-31T01:17:12;40.45;36.47;49.87;;
74496;Laerm;62979;55.720;37.606;2023-03-31T01:20:03;41.09;36.34;49.93;;
74496;Laerm;62979;55.720;37.606;2023-03-31T01:23:14;41.75;36.25;51.83;;
74496;Laerm;62979;55.720;37.606;2023-03-31T01:26:20;39.99;36.05;45.04;;
74496;Laerm;62979;55.720;37.606;2023-03-31T01:29:05;40.52;36.21;46.83;;
74496;Laerm;62979;55.720;37.606;2023-03-31T01:32:03;39.12;35.34;42.63;;
74496;Laerm;62979;55.720;37.606;2023-03-31T01:34:59;49.02;36.22;68.99;;
74496;Laerm;62979;55.720;37.606;2023-03-31T01:38:35;54.97;38.50;68.01;;
74496;Laerm;62979;55.720;37.606;2023-03-31T01:41:32;47.84;38.15;58.68;;
74496;Laerm;62979;55.720;37.606;2023-03-31T01:44:16;40.94;36.69;47.34;;
74496;Laerm;62979;55.720;37.606;2023-03-31T01:46:54;40.77;36.76;44.24;;
74496;Laerm;62979;55.720;37.606;2023-03-31T01:49:33;40.17;36.93;44.47;;
74496;Laerm;62979;55.720;37.606;2023-03-31T01:52:12;45.33;37.21;61.18;;
74496;Laerm;62979;55.720;37.606;2023-03-31T01:54:49;46.68;36.82;59.19;;
74496;Laerm;62979;55.720;37.606;2023-03-31T01:57:23;41.02;36.65;51.44;;
74496;Laerm;62979;55.720;37.606;2023-03-31T01:59:58;45.07;37.75;57.66;;
74496;Laerm;62979;55.720;37.606;2023-03-31T02:02:33;54.10;37.07;65.32;;
74496;Laerm;62979;55.720;37.606;2023-03-31T02:05:07;47.34;43.03;55.57;;
74496;Laerm;62979;55.720;37.606;2023-03-31T02:07:41;44.80;37.69;50.81;;
74496;Laerm;62979;55.720;37.606;2023-03-31T02:10:12;40.30;36.05;48.37;;
74496;Laerm;62979;55.720;37.606;2023-03-31T02:12:44;49.73;36.36;63.68;;
74496;Laerm;62979;55.720;37.606;2023-03-31T02:15:17;44.73;36.58;55.93;;
74496;Laerm;62979;55.720;37.606;2023-03-31T02:17:50;42.17;36.42;50.71;;
74496;Laerm;62979;55.720;37.606;2023-03-31T02:20:21;40.43;36.10;56.02;;
74496;Laerm;62979;55.720;37.606;2023-03-31T02:22:53;42.16;35.88;60.43;;
74496;Laerm;62979;55.720;37.606;2023-03-31T02:25:25;46.44;36.86;67.82;;
74496;Laerm;62979;55.720;37.606;2023-03-31T02:27:59;42.12;36.34;57.90;;
74496;Laerm;62979;55.720;37.606;2023-03-31T02:30:37;40.97;37.30;46.73;;
74496;Laerm;62979;55.720;37.606;2023-03-31T02:33:09;46.75;38.14;57.22;;
74496;Laerm;62979;55.720;37.606;2023-03-31T02:35:36;51.01;38.89;72.00;;
74496;Laerm;62979;55.720;37.606;2023-03-31T02:38:03;45.57;38.70;60.07;;
74496;Laerm;62979;55.720;37.606;2023-03-31T02:40:31;44.68;37.95;55.33;;
74496;Laerm;62979;55.720;37.606;2023-03-31T02:43:00;43.31;37.42;53.07;;
74496;Laerm;62979;55.720;37.606;2023-03-31T02:45:44;45.42;38.00;58.38;;
74496;Laerm;62979;55.720;37.606;2023-03-31T02:48:17;49.07;37.94;63.80;;
74496;Laerm;62979;55.720;37.606;2023-03-31T02:51:14;48.82;38.38;62.27;;
74496;Laerm;62979;55.720;37.606;2023-03-31T02:54:13;50.11;37.58;64.49;;
74496;Laerm;62979;55.720;37.606;2023-03-31T02:57:14;47.99;38.45;62.56;;
74496;Laerm;62979;55.720;37.606;2023-03-31T02:59:57;46.38;38.15;61.31;;
74496;Laerm;62979;55.720;37.606;2023-03-31T03:02:38;46.52;37.42;62.23;;
74496;Laerm;62979;55.720;37.606;2023-03-31T03:05:23;53.75;38.19;66.48;;
74496;Laerm;62979;55.720;37.606;2023-03-31T03:08:05;51.94;38.19;65.71;;
74496;Laerm;62979;55.720;37.606;2023-03-31T03:10:43;54.12;39.31;72.24;;
74496;Laerm;62979;55.720;37.606;2023-03-31T03:13:20;55.03;38.83;68.77;;
74496;Laerm;62979;55.720;37.606;2023-03-31T03:15:57;53.47;40.10;66.06;;
74496;Laerm;62979;55.720;37.606;2023-03-31T03:18:28;52.18;38.28;67.20;;
74496;Laerm;62979;55.720;37.606;2023-03-31T03:20:54;50.46;40.70;62.60;;
74496;Laerm;62979;55.720;37.606;2023-03-31T03:23:21;46.83;38.97;58.26;;
74496;Laerm;62979;55.720;37.606;2023-03-31T03:25:48;54.98;39.98;69.72;;
74496;Laerm;62979;55.720;37.606;2023-03-31T03:28:15;54.36;42.50;70.53;;
74496;Laerm;62979;55.720;37.606;2023-03-31T03:30:43;54.25;41.18;66.36;;
74496;Laerm;62979;55.720;37.606;2023-03-31T03:33:11;51.97;40.78;67.23;;
74496;Laerm;62979;55.720;37.606;2023-03-31T03:35:41;50.31;42.58;59.24;;
74496;Laerm;62979;55.720;37.606;2023-03-31T03:38:08;49.82;40.29;60.87;;
74496;Laerm;62979;55.720;37.606;2023-03-31T03:40:35;48.08;40.63;60.14;;
74496;Laerm;62979;55.720;37.606;2023-03-31T03:43:02;54.59;41.21;69.36;;
74496;Laerm;62979;55.720;37.606;2023-03-31T03:45:29;56.17;43.87;66.30;;
74496;Laerm;62979;55.720;37.606;2023-03-31T03:47:56;56.55;41.69;66.95;;
74496;Laerm;62979;55.720;37.606;2023-03-31T03:50:24;55.34;41.54;66.62;;
74496;Laerm;62979;55.720;37.606;2023-03-31T03:52:51;58.70;43.94;73.43;;
74496;Laerm;62979;55.720;37.606;2023-03-31T03:55:18;51.87;42.15;63.00;;
74496;Laerm;62979;55.720;37.606;2023-03-31T03:57:45;53.20;43.43;67.07;;
74496;Laerm;62979;55.720;37.606;2023-03-31T04:00:12;57.32;43.07;69.10;;
74496;Laerm;62979;55.720;37.606;2023-03-31T04:02:39;57.48;45.28;70.99;;
74496;Laerm;62979;55.720;37.606;2023-03-31T04:05:07;51.73;43.39;62.21;;
74496;Laerm;62979;55.720;37.606;2023-03-31T04:07:35;55.25;46.07;69.61;;
74496;Laerm;62979;55.720;37.606;2023-03-31T04:10:02;52.31;45.10;63.41;;
74496;Laerm;62979;55.720;37.606;2023-03-31T04:12:29;54.55;44.61;68.39;;
74496;Laerm;62979;55.720;37.606;2023-03-31T04:14:56;52.24;43.02;62.10;;
74496;Laerm;62979;55.720;37.606;2023-03-31T04:17:23;56.20;47.08;65.73;;
74496;Laerm;62979;55.720;37.606;2023-03-31T04:19:57;57.00;46.07;66.76;;
74496;Laerm;62979;55.720;37.606;2023-03-31T04:22:27;54.98;43.94;66.44;;
74496;Laerm;62979;55.720;37.606;2023-03-31T04:25:01;53.35;43.46;65.29;;
74496;Laerm;62979;55.720;37.606;2023-03-31T04:27:29;52.34;43.50;62.02;;
74496;Laerm;62979;55.720;37.606;2023-03-31T04:29:58;58.49;46.31;69.03;;
74496;Laerm;62979;55.720;37.606;2023-03-31T04:32:25;57.18;44.55;68.34;;
74496;Laerm;62979;55.720;37.606;2023-03-31T04:34:53;56.21;44.53;66.18;;
74496;Laerm;62979;55.720;37.606;2023-03-31T04:37:27;53.03;45.58;61.70;;
74496;Laerm;62979;55.720;37.606;2023-03-31T04:40:00;53.74;44.23;63.52;;
74496;Laerm;62979;55.720;37.606;2023-03-31T04:42:34;55.39;46.43;66.05;;
74496;Laerm;62979;55.720;37.606;2023-03-31T04:45:01;55.96;45.75;65.36;;
74496;Laerm;62979;55.720;37.606;2023-03-31T04:47:28;55.99;47.66;64.73;;
74496;Laerm;62979;55.720;37.606;2023-03-31T04:49:55;53.94;45.80;64.16;;
74496;Laerm;62979;55.720;37.606;2023-03-31T04:52:22;57.78;48.77;68.82;;
74496;Laerm;62979;55.720;37.606;2023-03-31T04:54:48;55.47;48.05;63.35;;
74496;Laerm;62979;55.720;37.606;2023-03-31T04:57:17;56.47;45.60;64.63;;
74496;Laerm;62979;55.720;37.606;2023-03-31T04:59:43;55.88;45.76;66.19;;
74496;Laerm;62979;55.720;37.606;2023-03-31T05:02:10;58.01;49.45;67.67;;
74496;Laerm;62979;55.720;37.606;2023-03-31T05:04:37;60.37;54.22;68.61;;
74496;Laerm;62979;55.720;37.606;2023-03-31T05:07:04;60.06;53.19;72.17;;
74496;Laerm;62979;55.720;37.606;2023-03-31T05:09:31;61.65;54.57;74.20;;
74496;Laerm;62979;55.720;37.606;2023-03-31T05:11:59;61.66;54.38;69.76;;
74496;Laerm;62979;55.720;37.606;2023-03-31T05:14:27;63.60;54.50;74.29;;
74496;Laerm;62979;55.720;37.606;2023-03-31T05:16:54;64.48;50.51;79.94;;
74496;Laerm;62979;55.720;37.606;2023-03-31T05:19:22;60.99;50.63;72.37;;
74496;Laerm;62979;55.720;37.606;2023-03-31T05:21:49;58.36;51.94;69.98;;
74496;Laerm;62979;55.720;37.606;2023-03-31T05:24:16;59.81;49.59;67.89;;
74496;Laerm;62979;55.720;37.606;2023-03-31T05:26:43;58.57;49.38;66.28;;
74496;Laerm;62979;55.720;37.606;2023-03-31T05:29:14;56.63;48.00;64.48;;
74496;Laerm;62979;55.720;37.606;2023-03-31T05:31:43;59.03;51.96;69.92;;
74496;Laerm;62979;55.720;37.606;2023-03-31T05:34:10;58.84;52.84;68.44;;
74496;Laerm;62979;55.720;37.606;2023-03-31T05:36:37;57.93;51.96;65.69;;
74496;Laerm;62979;55.720;37.606;2023-03-31T05:39:05;59.26;51.31;74.09;;
74496;Laerm;62979;55.720;37.606;2023-03-31T05:41:32;57.67;48.63;67.11;;
74496;Laerm;62979;55.720;37.606;2023-03-31T05:44:00;60.25;51.36;68.69;;
74496;Laerm;62979;55.720;37.606;2023-03-31T05:46:27;56.83;47.10;65.92;;
74496;Laerm;62979;55.720;37.606;2023-03-31T05:48:55;57.51;49.66;65.20;;
74496;Laerm;62979;55.720;37.606;2023-03-31T05:51:23;57.70;49.03;68.78;;
74496;Laerm;62979;55.720;37.606;2023-03-31T05:53:50;58.61;53.26;67.45;;
74496;Laerm;62979;55.720;37.606;2023-03-31T05:56:17;60.78;52.86;68.28;;
74496;Laerm;62979;55.720;37.606;2023-03-31T05:58:44;57.66;50.38;66.36;;
74496;Laerm;62979;55.720;37.606;2023-03-31T06:01:14;59.64;47.04;69.19;;
74496;Laerm;62979;55.720;37.606;2023-03-31T06:03:48;57.16;48.74;71.10;;
74496;Laerm;62979;55.720;37.606;2023-03-31T06:06:16;58.50;51.58;64.54;;
74496;Laerm;62979;55.720;37.606;2023-03-31T06:08:46;56.91;46.79;69.71;;
74496;Laerm;62979;55.720;37.606;2023-03-31T06:11:16;57.62;48.40;66.42;;
74496;Laerm;62979;55.720;37.606;2023-03-31T06:13:44;56.24;46.76;66.51;;
74496;Laerm;62979;55.720;37.606;2023-03-31T06:16:14;58.13;48.37;68.70;;
74496;Laerm;62979;55.720;37.606;2023-03-31T06:18:42;57.52;49.91;70.35;;
74496;Laerm;62979;55.720;37.606;2023-03-31T06:21:13;57.69;49.77;78.88;;
74496;Laerm;62979;55.720;37.606;2023-03-31T06:23:42;55.63;47.74;64.14;;
74496;Laerm;62979;55.720;37.606;2023-03-31T06:26:13;58.98;50.56;65.95;;
74496;Laerm;62979;55.720;37.606;2023-03-31T06:28:40;59.33;55.22;65.58;;
74496;Laerm;62979;55.720;37.606;2023-03-31T06:31:10;58.23;52.57;73.00;;
74496;Laerm;62979;55.720;37.606;2023-03-31T06:33:39;57.88;50.31;69.08;;
74496;Laerm;62979;55.720;37.606;2023-03-31T06:36:07;57.47;50.27;68.43;;
74496;Laerm;62979;55.720;37.606;2023-03-31T06:38:36;57.76;50.55;78.08;;
74496;Laerm;62979;55.720;37.606;2023-03-31T06:41:06;58.57;48.15;67.03;;
74496;Laerm;62979;55.720;37.606;2023-03-31T06:43:33;57.49;46.86;65.32;;
74496;Laerm;62979;55.720;37.606;2023-03-31T06:46:00;58.36;50.07;70.95;;
74496;Laerm;62979;55.720;37.606;2023-03-31T06:48:29;58.27;48.53;67.06;;
74496;Laerm;62979;55.720;37.606;2023-03-31T06:50:58;55.04;47.91;63.67;;
74496;Laerm;62979;55.720;37.606;2023-03-31T06:53:26;57.19;49.59;68.92;;
74496;Laerm;62979;55.720;37.606;2023-03-31T06:55:53;55.74;47.68;67.05;;
74496;Laerm;62979;55.720;37.606;2023-03-31T06:58:22;58.45;52.18;67.75;;
74496;Laerm;62979;55.720;37.606;2023-03-31T07:00:49;57.02;47.69;69.14;;
74496;Laerm;62979;55.720;37.606;2023-03-31T07:03:17;53.99;46.11;61.87;;
74496;Laerm;62979;55.720;37.606;2023-03-31T07:05:48;56.08;45.11;64.56;;
74496;Laerm;62979;55.720;37.606;2023-03-31T07:08:16;56.59;49.03;63.83;;
74496;Laerm;62979;55.720;37.606;2023-03-31T07:10:44;58.00;49.16;71.94;;
74496;Laerm;62979;55.720;37.606;2023-03-31T07:13:14;58.73;47.01;72.13;;
74496;Laerm;62979;55.720;37.606;2023-03-31T07:15:46;57.10;46.52;68.59;;
74496;Laerm;62979;55.720;37.606;2023-03-31T07:18:14;54.98;45.95;66.17;;
74496;Laerm;62979;55.720;37.606;2023-03-31T07:20:41;56.62;49.76;64.86;;
74496;Laerm;62979;55.720;37.606;2023-03-31T07:23:09;62.60;50.63;77.90;;
74496;Laerm;62979;55.720;37.606;2023-03-31T07:25:35;58.63;48.55;68.68;;
74496;Laerm;62979;55.720;37.606;2023-03-31T07:28:03;57.03;49.85;64.42;;
74496;Laerm;62979;55.720;37.606;2023-03-31T07:30:31;60.56;48.40;76.92;;
74496;Laerm;62979;55.720;37.606;2023-03-31T07:33:01;54.86;44.95;65.02;;
74496;Laerm;62979;55.720;37.606;2023-03-31T07:35:28;54.86;43.63;66.44;;
74496;Laerm;62979;55.720;37.606;2023-03-31T07:37:55;59.90;47.32;71.96;;
74496;Laerm;62979;55.720;37.606;2023-03-31T07:40:25;54.53;46.46;64.16;;
74496;Laerm;62979;55.720;37.606;2023-03-31T07:42:52;59.26;49.10;76.84;;
74496;Laerm;62979;55.720;37.606;2023-03-31T07:45:22;56.61;48.98;66.61;;
74496;Laerm;62979;55.720;37.606;2023-03-31T07:47:51;60.90;50.16;70.23;;
74496;Laerm;62979;55.720;37.606;2023-03-31T07:50:20;59.40;49.08;71.38;;
74496;Laerm;62979;55.720;37.606;2023-03-31T07:52:49;58.56;49.34;66.70;;
74496;Laerm;62979;55.720;37.606;2023-03-31T07:55:17;56.91;48.68;66.42;;
74496;Laerm;62979;55.720;37.606;2023-03-31T07:57:45;55.18;49.60;63.66;;
74496;Laerm;62979;55.720;37.606;2023-03-31T08:00:14;54.94;47.28;62.83;;
74496;Laerm;62979;55.720;37.606;2023-03-31T08:02:42;59.68;48.67;72.35;;
74496;Laerm;62979;55.720;37.606;2023-03-31T08:05:11;56.55;48.16;64.67;;
74496;Laerm;62979;55.720;37.606;2023-03-31T08:07:44;58.43;49.91;71.25;;
74496;Laerm;62979;55.720;37.606;2023-03-31T08:10:15;57.33;49.02;65.60;;
74496;Laerm;62979;55.720;37.606;2023-03-31T08:12:42;55.82;47.83;65.78;;
74496;Laerm;62979;55.720;37.606;2023-03-31T08:15:10;57.82;47.30;70.97;;
74496;Laerm;62979;55.720;37.606;2023-03-31T08:17:38;56.87;47.95;67.25;;
74496;Laerm;62979;55.720;37.606;2023-03-31T08:20:07;56.10;48.12;70.81;;
74496;Laerm;62979;55.720;37.606;2023-03-31T08:22:35;55.29;49.45;66.26;;
74496;Laerm;62979;55.720;37.606;2023-03-31T08:25:04;57.69;48.89;71.96;;
74496;Laerm;62979;55.720;37.606;2023-03-31T08:27:33;56.01;47.67;73.11;;
74496;Laerm;62979;55.720;37.606;2023-03-31T08:30:00;58.98;48.04;69.99;;
74496;Laerm;62979;55.720;37.606;2023-03-31T08:32:30;58.05;51.85;73.23;;
74496;Laerm;62979;55.720;37.606;2023-03-31T08:34:57;57.97;51.58;67.45;;
74496;Laerm;62979;55.720;37.606;2023-03-31T08:37:26;61.29;51.26;80.46;;
74496;Laerm;62979;55.720;37.606;2023-03-31T08:39:53;56.05;45.45;69.89;;
74496;Laerm;62979;55.720;37.606;2023-03-31T08:42:33;56.14;47.43;65.65;;
74496;Laerm;62979;55.720;37.606;2023-03-31T08:45:19;56.74;48.94;64.91;;
74496;Laerm;62979;55.720;37.606;2023-03-31T08:47:51;57.70;47.60;72.91;;
74496;Laerm;62979;55.720;37.606;2023-03-31T08:50:24;60.35;52.87;76.97;;
74496;Laerm;62979;55.720;37.606;2023-03-31T08:53:03;59.49;48.67;77.05;;
74496;Laerm;62979;55.720;37.606;2023-03-31T08:55:42;55.70;48.76;66.25;;
74496;Laerm;62979;55.720;37.606;2023-03-31T08:58:34;56.19;47.79;65.23;;
74496;Laerm;62979;55.720;37.606;2023-03-31T09:01:15;57.85;48.36;85.65;;
74496;Laerm;62979;55.720;37.606;2023-03-31T09:04:06;55.69;46.79;65.59;;
74496;Laerm;62979;55.720;37.606;2023-03-31T09:06:38;55.07;45.50;66.58;;
74496;Laerm;62979;55.720;37.606;2023-03-31T09:09:15;55.84;47.47;63.72;;
74496;Laerm;62979;55.720;37.606;2023-03-31T09:11:51;57.96;49.50;69.35;;
74496;Laerm;62979;55.720;37.606;2023-03-31T09:14:35;57.18;46.34;67.80;;
74496;Laerm;62979;55.720;37.606;2023-03-31T09:17:16;55.57;47.36;65.39;;
74496;Laerm;62979;55.720;37.606;2023-03-31T09:19:50;55.09;47.23;71.28;;
74496;Laerm;62979;55.720;37.606;2023-03-31T09:22:24;57.35;49.08;73.41;;
74496;Laerm;62979;55.720;37.606;2023-03-31T09:24:58;56.20;49.16;65.15;;
74496;Laerm;62979;55.720;37.606;2023-03-31T09:27:29;57.18;49.47;69.51;;
74496;Laerm;62979;55.720;37.606;2023-03-31T09:30:11;61.30;47.34;78.60;;
74496;Laerm;62979;55.720;37.606;2023-03-31T09:32:41;57.82;49.52;68.57;;
74496;Laerm;62979;55.720;37.606;2023-03-31T09:35:17;56.38;46.54;65.83;;
74496;Laerm;62979;55.720;37.606;2023-03-31T09:37:47;56.84;47.91;71.44;;
74496;Laerm;62979;55.720;37.606;2023-03-31T09:40:18;58.22;48.73;68.04;;
74496;Laerm;62979;55.720;37.606;2023-03-31T09:42:50;57.83;47.84;67.24;;
74496;Laerm;62979;55.720;37.606;2023-03-31T09:45:21;56.70;48.31;63.69;;
74496;Laerm;62979;55.720;37.606;2023-03-31T09:47:52;57.92;47.92;65.33;;
74496;Laerm;62979;55.720;37.606;2023-03-31T09:50:21;60.09;55.00;68.01;;
74496;Laerm;62979;55.720;37.606;2023-03-31T09:52:52;56.13;48.69;64.95;;
74496;Laerm;62979;55.720;37.606;2023-03-31T09:55:24;56.48;49.39;71.24;;
74496;Laerm;62979;55.720;37.606;2023-03-31T09:57:52;58.74;47.36;78.15;;
74496;Laerm;62979;55.720;37.606;2023-03-31T10:00:22;56.76;49.90;67.48;;
74496;Laerm;62979;55.720;37.606;2023-03-31T10:02:51;56.73;48.12;66.05;;
74496;Laerm;62979;55.720;37.606;2023-03-31T10:05:28;55.63;48.20;67.86;;
74496;Laerm;62979;55.720;37.606;2023-03-31T10:08:25;54.77;47.00;66.78;;
74496;Laerm;62979;55.720;37.606;2023-03-31T10:10:55;56.22;47.13;64.58;;
74496;Laerm;62979;55.720;37.606;2023-03-31T10:13:24;56.56;46.56;74.30;;
74496;Laerm;62979;55.720;37.606;2023-03-31T10:16:03;57.36;49.32;72.61;;
74496;Laerm;62979;55.720;37.606;2023-03-31T10:18:36;55.86;46.47;64.99;;
74496;Laerm;62979;55.720;37.606;2023-03-31T10:21:06;56.41;46.33;66.03;;
74496;Laerm;62979;55.720;37.606;2023-03-31T10:23:34;56.65;49.57;68.85;;
74496;Laerm;62979;55.720;37.606;2023-03-31T10:26:03;58.02;47.48;67.57;;
74496;Laerm;62979;55.720;37.606;2023-03-31T10:28:34;58.46;50.05;65.28;;
74496;Laerm;62979;55.720;37.606;2023-03-31T10:31:03;58.87;49.22;68.38;;
74496;Laerm;62979;55.720;37.606;2023-03-31T10:33:32;58.05;48.53;76.60;;
74496;Laerm;62979;55.720;37.606;2023-03-31T10:36:20;54.80;45.46;73.32;;
74496;Laerm;62979;55.720;37.606;2023-03-31T10:38:49;56.12;48.50;64.25;;
74496;Laerm;62979;55.720;37.606;2023-03-31T10:41:19;55.72;46.21;72.61;;
74496;Laerm;62979;55.720;37.606;2023-03-31T10:43:50;56.77;47.13;72.01;;
74496;Laerm;62979;55.720;37.606;2023-03-31T10:46:19;55.75;47.59;64.85;;
74496;Laerm;62979;55.720;37.606;2023-03-31T10:48:46;56.22;48.35;77.96;;
74496;Laerm;62979;55.720;37.606;2023-03-31T10:51:17;56.93;50.42;64.28;;
74496;Laerm;62979;55.720;37.606;2023-03-31T10:53:47;59.43;47.41;72.93;;
74496;Laerm;62979;55.720;37.606;2023-03-31T10:56:38;55.85;48.18;69.43;;
74496;Laerm;62979;55.720;37.606;2023-03-31T10:59:22;57.38;47.47;69.93;;
74496;Laerm;62979;55.720;37.606;2023-03-31T11:02:30;56.72;47.13;66.72;;
74496;Laerm;62979;55.720;37.606;2023-03-31T11:05:11;57.73;47.09;67.01;;
74496;Laerm;62979;55.720;37.606;2023-03-31T11:07:56;56.93;46.43;65.76;;
74496;Laerm;62979;55.720;37.606;2023-03-31T11:10:48;58.29;49.32;67.73;;
74496;Laerm;62979;55.720;37.606;2023-03-31T11:13:24;56.80;48.81;68.62;;
74496;Laerm;62979;55.720;37.606;2023-03-31T11:15:59;56.15;47.91;75.52;;
74496;Laerm;62979;55.720;37.606;2023-03-31T11:18:56;56.93;47.51;68.88;;
74496;Laerm;62979;55.720;37.606;2023-03-31T11:21:38;54.64;46.61;62.71;;
74496;Laerm;62979;55.720;37.606;2023-03-31T11:24:32;56.16;47.07;67.69;;
74496;Laerm;62979;55.720;37.606;2023-03-31T11:27:20;56.67;46.94;67.52;;
74496;Laerm;62979;55.720;37.606;2023-03-31T11:30:00;54.86;45.38;64.65;;
74496;Laerm;62979;55.720;37.606;2023-03-31T11:32:52;59.23;48.01;68.52;;
74496;Laerm;62979;55.720;37.606;2023-03-31T11:35:55;57.69;48.06;76.04;;
74496;Laerm;62979;55.720;37.606;2023-03-31T11:38:50;54.69;47.97;65.24;;
74496;Laerm;62979;55.720;37.606;2023-03-31T11:41:33;57.63;46.66;82.65;;
74496;Laerm;62979;55.720;37.606;2023-03-31T11:44:04;55.57;47.03;64.51;;
74496;Laerm;62979;55.720;37.606;2023-03-31T11:46:39;58.08;48.46;65.34;;
74496;Laerm;62979;55.720;37.606;2023-03-31T11:49:18;56.90;50.68;74.11;;
74496;Laerm;62979;55.720;37.606;2023-03-31T11:51:53;57.59;47.98;65.30;;
74496;Laerm;62979;55.720;37.606;2023-03-31T11:54:29;54.91;47.79;63.50;;
74496;Laerm;62979;55.720;37.606;2023-03-31T11:57:03;57.27;46.09;69.15;;
74496;Laerm;62979;55.720;37.606;2023-03-31T11:59:33;56.20;46.75;67.33;;
74496;Laerm;62979;55.720;37.606;2023-03-31T12:02:14;55.76;47.95;66.41;;
74496;Laerm;62979;55.720;37.606;2023-03-31T12:04:46;55.24;48.15;64.21;;
74496;Laerm;62979;55.720;37.606;2023-03-31T12:07:25;58.79;50.99;68.62;;
74496;Laerm;62979;55.720;37.606;2023-03-31T12:10:03;56.21;48.89;64.65;;
74496;Laerm;62979;55.720;37.606;2023-03-31T12:12:43;58.75;47.15;75.36;;
74496;Laerm;62979;55.720;37.606;2023-03-31T12:15:19;56.50;49.54;68.74;;
74496;Laerm;62979;55.720;37.606;2023-03-31T12:17:56;57.10;48.01;66.76;;
74496;Laerm;62979;55.720;37.606;2023-03-31T12:20:31;57.15;50.03;65.75;;
74496;Laerm;62979;55.720;37.606;2023-03-31T12:23:05;53.95;45.63;62.39;;
74496;Laerm;62979;55.720;37.606;2023-03-31T12:25:50;55.41;48.72;65.08;;
74496;Laerm;62979;55.720;37.606;2023-03-31T12:28:18;58.73;47.40;69.92;;
74496;Laerm;62979;55.720;37.606;2023-03-31T12:30:47;56.49;48.81;63.12;;
74496;Laerm;62979;55.720;37.606;2023-03-31T12:33:20;57.25;47.31;70.16;;
74496;Laerm;62979;55.720;37.606;2023-03-31T12:36:08;58.24;49.15;74.29;;
74496;Laerm;62979;55.720;37.606;2023-03-31T12:38:56;57.98;49.38;64.92;;
74496;Laerm;62979;55.720;37.606;2023-03-31T12:41:31;58.29;49.20;69.23;;
74496;Laerm;62979;55.720;37.606;2023-03-31T12:44:30;57.05;49.19;65.99;;
74496;Laerm;62979;55.720;37.606;2023-03-31T12:47:23;57.25;51.06;64.88;;
74496;Laerm;62979;55.720;37.606;2023-03-31T12:50:27;57.98;50.53;67.48;;
74496;Laerm;62979;55.720;37.606;2023-03-31T12:53:07;57.83;51.38;65.89;;
74496;Laerm;62979;55.720;37.606;2023-03-31T12:55:44;56.45;49.07;66.31;;
74496;Laerm;62979;55.720;37.606;2023-03-31T12:58:38;58.14;45.95;70.83;;
74496;Laerm;62979;55.720;37.606;2023-03-31T13:01:11;56.77;48.00;69.58;;
74496;Laerm;62979;55.720;37.606;2023-03-31T13:03:50;55.22;46.42;66.74;;
74496;Laerm;62979;55.720;37.606;2023-03-31T13:06:56;57.98;47.73;67.55;;
74496;Laerm;62979;55.720;37.606;2023-03-31T13:09:45;56.98;48.24;71.64;;
74496;Laerm;62979;55.720;37.606;2023-03-31T13:12:18;54.53;47.42;68.49;;
74496;Laerm;62979;55.720;37.606;2023-03-31T13:14:48;59.10;48.83;70.81;;
74496;Laerm;62979;55.720;37.606;2023-03-31T13:17:30;59.74;50.54;69.79;;
74496;Laerm;62979;55.720;37.606;2023-03-31T13:24:00;59.97;51.29;80.63;;
74496;Laerm;62979;55.720;37.606;2023-03-31T13:26:41;60.98;53.51;71.21;;
74496;Laerm;62979;55.720;37.606;2023-03-31T13:29:25;60.96;57.36;72.94;;
74496;Laerm;62979;55.720;37.606;2023-03-31T13:32:19;58.98;50.45;71.94;;
74496;Laerm;62979;55.720;37.606;2023-03-31T13:34:57;64.54;52.03;83.76;;
74496;Laerm;62979;55.720;37.606;2023-03-31T13:37:51;57.26;51.20;75.34;;
74496;Laerm;62979;55.720;37.606;2023-03-31T13:40:49;57.82;47.03;67.98;;
74496;Laerm;62979;55.720;37.606;2023-03-31T13:43:52;57.79;50.30;68.62;;
74496;Laerm;62979;55.720;37.606;2023-03-31T13:46:49;56.76;49.09;72.69;;
74496;Laerm;62979;55.720;37.606;2023-03-31T13:49:50;63.20;52.06;82.92;;
74496;Laerm;62979;55.720;37.606;2023-03-31T13:52:35;60.27;52.68;70.63;;
74496;Laerm;62979;55.720;37.606;2023-03-31T13:55:52;59.67;52.35;71.52;;
74496;Laerm;62979;55.720;37.606;2023-03-31T13:58:53;57.97;50.51;66.63;;
74496;Laerm;62979;55.720;37.606;2023-03-31T14:02:01;58.52;51.54;67.67;;
74496;Laerm;62979;55.720;37.606;2023-03-31T14:05:08;58.67;51.10;66.02;;
74496;Laerm;62979;55.720;37.606;2023-03-31T14:07:45;60.12;52.74;77.08;;
74496;Laerm;62979;55.720;37.606;2023-03-31T14:10:28;57.99;51.05;70.24;;
74496;Laerm;62979;55.720;37.606;2023-03-31T14:13:10;63.57;50.96;89.59;;
74496;Laerm;62979;55.720;37.606;2023-03-31T14:15:42;59.86;50.85;69.94;;
74496;Laerm;62979;55.720;37.606;2023-03-31T14:18:20;60.77;55.93;69.02;;